Time,TemperatureF,DewpointF,PressureIn,WindDirection,WindDirectionDegrees,WindSpeedMPH,WindSpeedGustMPH,Humidity,HourlyPrecipIn,Conditions,Clouds,dailyrainin,SoftwareType,DateUTC
2013-05-27 00:02:00,71.3,66.6,30.09,NNE,30,11.0,11.0,85,0.00,,,0.00,VWS V14.01,2013-05-27 10:02:00,
2013-05-27 00:07:00,71.3,66.6,30.09,NNE,30,11.0,11.0,85,0.00,,,0.00,VWS V14.01,2013-05-27 10:07:00,
2013-05-27 00:12:00,71.4,66.7,30.09,NNE,14,10.0,12.0,85,0.00,,,0.00,VWS V14.01,2013-05-27 10:12:00,
2013-05-27 00:17:00,71.4,66.3,30.08,NNE,20,9.0,13.0,84,0.00,,,0.00,VWS V14.01,2013-05-27 10:17:00,
2013-05-27 00:22:00,71.4,66.3,30.08,NNE,13,7.0,9.0,84,0.00,,,0.00,VWS V14.01,2013-05-27 10:22:00,
2013-05-27 00:28:00,71.4,66.7,30.08,North,11,15.0,16.0,85,0.00,,,0.00,VWS V14.01,2013-05-27 10:28:00,
2013-05-27 00:33:00,71.2,66.8,30.09,NE,35,11.0,17.0,86,0.00,,,0.00,VWS V14.01,2013-05-27 10:33:00,
2013-05-27 00:38:00,71.0,66.6,30.09,NNE,30,14.0,20.0,86,0.00,,,0.00,VWS V14.01,2013-05-27 10:38:00,
2013-05-27 00:43:00,70.9,66.5,30.08,NNE,19,10.0,17.0,86,0.00,,,0.00,VWS V14.01,2013-05-27 10:43:00,
2013-05-27 00:48:00,70.9,66.5,30.08,NNE,23,8.0,9.0,86,0.00,,,0.00,VWS V14.01,2013-05-27 10:48:00,
2013-05-27 00:53:00,70.8,66.4,30.08,NNE,14,9.0,11.0,86,0.00,,,0.00,VWS V14.01,2013-05-27 10:53:00,
2013-05-27 00:58:00,70.8,66.4,30.08,North,9,13.0,14.0,86,0.00,,,0.00,VWS V14.01,2013-05-27 10:58:00,
2013-05-27 01:03:00,70.8,66.4,30.08,NNW,343,13.0,13.0,86,0.00,,,0.00,VWS V14.01,2013-05-27 11:03:00,
2013-05-27 01:09:00,71.0,66.6,30.07,North,9,13.0,13.0,86,0.00,,,0.00,VWS V14.01,2013-05-27 11:09:00,
2013-05-27 01:14:00,71.1,66.7,30.07,NNE,17,13.0,14.0,86,0.00,,,0.00,VWS V14.01,2013-05-27 11:14:00,
2013-05-27 01:19:00,71.1,66.7,30.07,East,95,11.0,12.0,86,0.00,,,0.00,VWS V14.01,2013-05-27 11:19:00,
2013-05-27 01:24:00,70.9,66.8,30.07,NNE,16,10.0,15.0,87,0.00,,,0.00,VWS V14.01,2013-05-27 11:24:00,
2013-05-27 01:29:00,70.7,66.3,30.07,NNE,29,11.0,11.0,86,0.00,,,0.00,VWS V14.01,2013-05-27 11:29:00,
2013-05-27 01:34:00,70.6,66.2,30.07,NNE,32,7.0,10.0,86,0.00,,,0.00,VWS V14.01,2013-05-27 11:34:00,
2013-05-27 01:39:00,70.5,66.1,30.07,NNE,32,4.0,7.0,86,0.00,,,0.00,VWS V14.01,2013-05-27 11:39:00,
2013-05-27 01:44:00,70.6,65.9,30.06,NNE,30,10.0,12.0,85,0.00,,,0.00,VWS V14.01,2013-05-27 11:44:00,
2013-05-27 01:50:00,70.7,65.6,30.05,NE,47,8.0,12.0,84,0.00,,,0.00,VWS V14.01,2013-05-27 11:50:00,
2013-05-27 01:55:00,70.9,65.8,30.06,NE,54,8.0,10.0,84,0.00,,,0.00,VWS V14.01,2013-05-27 11:55:00,
2013-05-27 02:00:00,70.9,65.8,30.06,NNE,22,10.0,10.0,84,0.00,,,0.00,VWS V14.01,2013-05-27 12:00:00,
2013-05-27 02:05:00,70.9,65.8,30.06,NE,47,3.0,4.0,84,0.00,,,0.00,VWS V14.01,2013-05-27 12:05:00,
2013-05-27 02:10:00,70.9,66.2,30.06,NNE,15,8.0,8.0,85,0.00,,,0.00,VWS V14.01,2013-05-27 12:10:00,
2013-05-27 02:15:00,70.9,65.8,30.06,North,2,9.0,9.0,84,0.00,,,0.00,VWS V14.01,2013-05-27 12:15:00,
2013-05-27 02:20:00,71.0,65.2,30.05,North,357,12.0,14.0,82,0.00,,,0.00,VWS V14.01,2013-05-27 12:20:00,
2013-05-27 02:25:00,71.2,65.8,30.05,NE,52,9.0,9.0,83,0.00,,,0.00,VWS V14.01,2013-05-27 12:25:00,
2013-05-27 02:30:00,71.1,65.7,30.05,NNE,14,17.0,17.0,83,0.00,,,0.00,VWS V14.01,2013-05-27 12:30:00,
2013-05-27 02:35:00,71.0,65.6,30.05,NNE,16,13.0,13.0,83,0.00,,,0.00,VWS V14.01,2013-05-27 12:35:00,
2013-05-27 02:40:00,71.1,65.7,30.04,North,9,18.0,18.0,83,0.00,,,0.00,VWS V14.01,2013-05-27 12:40:00,
2013-05-27 02:46:00,71.0,64.9,30.04,NNE,24,9.0,9.0,81,0.00,,,0.00,VWS V14.01,2013-05-27 12:46:00,
2013-05-27 02:51:00,71.1,65.0,30.04,NE,52,13.0,17.0,81,0.00,,,0.00,VWS V14.01,2013-05-27 12:51:00,
2013-05-27 02:56:00,71.0,65.2,30.04,NE,41,7.0,11.0,82,0.00,,,0.00,VWS V14.01,2013-05-27 12:56:00,
2013-05-27 03:01:00,71.0,65.6,30.04,North,5,9.0,9.0,83,0.00,,,0.00,VWS V14.01,2013-05-27 13:01:00,
2013-05-27 03:06:00,70.9,65.1,30.04,NE,40,14.0,14.0,82,0.00,,,0.00,VWS V14.01,2013-05-27 13:06:00,
2013-05-27 03:11:00,71.0,64.9,30.04,NNE,24,13.0,17.0,81,0.00,,,0.00,VWS V14.01,2013-05-27 13:11:00,
2013-05-27 03:16:00,71.1,64.6,30.04,NNE,19,13.0,13.0,80,0.00,,,0.00,VWS V14.01,2013-05-27 13:16:00,
2013-05-27 03:21:00,71.3,65.2,30.04,NE,45,6.0,7.0,81,0.00,,,0.00,VWS V14.01,2013-05-27 13:21:00,
2013-05-27 03:26:00,71.3,65.9,30.04,NNE,28,19.0,19.0,83,0.00,,,0.00,VWS V14.01,2013-05-27 13:26:00,
2013-05-27 03:31:00,71.1,66.0,30.04,NNE,15,12.0,12.0,84,0.00,,,0.00,VWS V14.01,2013-05-27 13:31:00,
2013-05-27 03:36:00,70.7,65.6,30.03,NW,316,9.0,12.0,84,0.00,,,0.00,VWS V14.01,2013-05-27 13:36:00,
2013-05-27 03:42:00,70.6,65.9,30.04,North,360,8.0,18.0,85,0.00,,,0.00,VWS V14.01,2013-05-27 13:42:00,
2013-05-27 03:47:00,70.5,65.8,30.04,NE,50,8.0,11.0,85,0.00,,,0.00,VWS V14.01,2013-05-27 13:47:00,
2013-05-27 03:52:00,70.5,65.8,30.04,NNE,23,14.0,14.0,85,0.00,,,0.00,VWS V14.01,2013-05-27 13:52:00,
2013-05-27 03:57:00,70.5,65.4,30.04,NNE,26,13.0,15.0,84,0.00,,,0.00,VWS V14.01,2013-05-27 13:57:00,
2013-05-27 04:02:00,70.6,65.5,30.04,NNE,17,10.0,10.0,84,0.00,,,0.00,VWS V14.01,2013-05-27 14:02:00,
2013-05-27 04:07:00,70.6,65.9,30.04,NNE,18,4.0,4.0,85,0.00,,,0.00,VWS V14.01,2013-05-27 14:07:00,
2013-05-27 04:12:00,70.6,65.9,30.04,NNE,29,6.0,7.0,85,0.00,,,0.00,VWS V14.01,2013-05-27 14:12:00,
2013-05-27 04:17:00,70.7,66.0,30.04,NNE,20,9.0,10.0,85,0.00,,,0.00,VWS V14.01,2013-05-27 14:17:00,
2013-05-27 04:22:00,70.8,66.1,30.04,NNE,12,8.0,12.0,85,0.00,,,0.00,VWS V14.01,2013-05-27 14:22:00,
2013-05-27 04:27:00,70.9,66.5,30.04,NNE,19,19.0,19.0,86,0.00,,,0.00,VWS V14.01,2013-05-27 14:27:00,
2013-05-27 04:32:00,71.0,66.6,30.04,North,358,16.0,16.0,86,0.00,,,0.00,VWS V14.01,2013-05-27 14:32:00,
2013-05-27 04:38:00,71.0,66.6,30.04,NNE,19,11.0,13.0,86,0.00,,,0.00,VWS V14.01,2013-05-27 14:38:00,
2013-05-27 04:43:00,70.9,66.5,30.04,North,10,15.0,15.0,86,0.00,,,0.00,VWS V14.01,2013-05-27 14:43:00,
2013-05-27 04:48:00,70.9,66.5,30.04,NNE,21,13.0,13.0,86,0.00,,,0.00,VWS V14.01,2013-05-27 14:48:00,
2013-05-27 04:53:00,70.8,66.4,30.04,NNE,21,7.0,10.0,86,0.00,,,0.00,VWS V14.01,2013-05-27 14:53:00,
2013-05-27 04:58:00,70.9,66.2,30.03,NNW,345,12.0,12.0,85,0.00,,,0.00,VWS V14.01,2013-05-27 14:58:00,
2013-05-27 05:03:00,71.1,66.4,30.04,NNE,16,9.0,12.0,85,0.00,,,0.00,VWS V14.01,2013-05-27 15:03:00,
2013-05-27 05:08:00,71.1,66.4,30.04,NNW,330,11.0,12.0,85,0.00,,,0.00,VWS V14.01,2013-05-27 15:08:00,
2013-05-27 05:13:00,71.1,66.4,30.04,NNE,12,9.0,12.0,85,0.00,,,0.00,VWS V14.01,2013-05-27 15:13:00,
2013-05-27 05:18:00,71.1,66.4,30.04,NNE,31,6.0,7.0,85,0.00,,,0.00,VWS V14.01,2013-05-27 15:18:00,
2013-05-27 05:24:00,71.1,66.4,30.04,NNE,22,11.0,13.0,85,0.00,,,0.00,VWS V14.01,2013-05-27 15:24:00,
2013-05-27 05:29:00,71.1,66.4,30.04,NE,44,7.0,7.0,85,0.00,,,0.00,VWS V14.01,2013-05-27 15:29:00,
2013-05-27 05:34:00,71.0,66.3,30.04,NE,40,5.0,8.0,85,0.00,,,0.00,VWS V14.01,2013-05-27 15:34:00,
2013-05-27 05:39:00,71.0,66.3,30.04,NNE,18,6.0,9.0,85,0.00,,,0.00,VWS V14.01,2013-05-27 15:39:00,
2013-05-27 05:44:00,71.1,66.4,30.05,NE,40,9.0,9.0,85,0.00,,,0.00,VWS V14.01,2013-05-27 15:44:00,
2013-05-27 05:49:00,71.1,66.4,30.04,NNE,12,9.0,12.0,85,0.00,,,0.00,VWS V14.01,2013-05-27 15:49:00,
2013-05-27 05:54:00,71.1,66.0,30.04,North,357,15.0,16.0,84,0.00,,,0.00,VWS V14.01,2013-05-27 15:54:00,
2013-05-27 05:59:00,71.2,66.1,30.05,NNE,31,10.0,10.0,84,0.00,,,0.00,VWS V14.01,2013-05-27 15:59:00,
2013-05-27 06:05:00,71.1,66.0,30.05,ENE,59,6.0,8.0,84,0.00,,,0.00,VWS V14.01,2013-05-27 16:05:00,
2013-05-27 06:10:00,71.3,65.9,30.05,NNE,16,10.0,12.0,83,0.00,,,0.00,VWS V14.01,2013-05-27 16:10:00,
2013-05-27 06:15:00,71.4,65.6,30.05,NNE,26,11.0,12.0,82,0.00,,,0.00,VWS V14.01,2013-05-27 16:15:00,
2013-05-27 06:20:00,71.4,66.0,30.05,ESE,107,3.0,3.0,83,0.00,,,0.00,VWS V14.01,2013-05-27 16:20:00,
2013-05-27 06:25:00,71.2,66.1,30.06,NNE,33,8.0,11.0,84,0.00,,,0.00,VWS V14.01,2013-05-27 16:25:00,
2013-05-27 06:30:00,71.2,65.8,30.06,North,355,3.0,4.0,83,0.00,,,0.00,VWS V14.01,2013-05-27 16:30:00,
2013-05-27 06:35:00,71.3,65.9,30.06,ENE,73,5.0,6.0,83,0.00,,,0.00,VWS V14.01,2013-05-27 16:35:00,
2013-05-27 06:40:00,71.2,65.8,30.06,NE,40,7.0,7.0,83,0.00,,,0.00,VWS V14.01,2013-05-27 16:40:00,
2013-05-27 06:45:00,71.3,65.2,30.06,NE,54,4.0,5.0,81,0.00,,,0.00,VWS V14.01,2013-05-27 16:45:00,
2013-05-27 06:50:00,71.5,65.0,30.06,NNE,32,9.0,9.0,80,0.00,,,0.00,VWS V14.01,2013-05-27 16:50:00,
2013-05-27 06:56:00,71.5,65.4,30.06,NNE,23,11.0,11.0,81,0.00,,,0.00,VWS V14.01,2013-05-27 16:56:00,
2013-05-27 07:01:00,71.4,65.6,30.07,NNE,29,12.0,13.0,82,0.00,,,0.00,VWS V14.01,2013-05-27 17:01:00,
2013-05-27 07:06:00,71.2,65.4,30.07,NE,52,5.0,6.0,82,0.00,,,0.00,VWS V14.01,2013-05-27 17:06:00,
2013-05-27 07:11:00,71.1,65.7,30.07,NNE,23,8.0,10.0,83,0.00,,,0.00,VWS V14.01,2013-05-27 17:11:00,
2013-05-27 07:16:00,71.1,65.7,30.07,NE,37,7.0,7.0,83,0.00,,,0.00,VWS V14.01,2013-05-27 17:16:00,
2013-05-27 07:21:00,71.1,65.7,30.07,North,7,10.0,10.0,83,0.00,,,0.00,VWS V14.01,2013-05-27 17:21:00,
2013-05-27 07:26:00,71.1,65.7,30.07,NNE,21,11.0,13.0,83,0.00,,,0.00,VWS V14.01,2013-05-27 17:26:00,
2013-05-27 07:31:00,71.1,65.3,30.08,NNE,20,6.0,8.0,82,0.00,,,0.00,VWS V14.01,2013-05-27 17:31:00,
2013-05-27 07:36:00,71.0,65.6,30.08,North,2,9.0,11.0,83,0.00,,,0.00,VWS V14.01,2013-05-27 17:36:00,
2013-05-27 07:41:00,71.0,65.6,30.08,NNE,20,4.0,7.0,83,0.00,,,0.00,VWS V14.01,2013-05-27 17:41:00,
2013-05-27 07:46:00,71.0,65.6,30.08,NNE,31,6.0,8.0,83,0.00,,,0.00,VWS V14.01,2013-05-27 17:46:00,
2013-05-27 07:52:00,70.9,65.5,30.07,NNE,22,5.0,8.0,83,0.00,,,0.00,VWS V14.01,2013-05-27 17:52:00,
2013-05-27 07:57:00,71.0,65.6,30.07,NE,37,5.0,5.0,83,0.00,,,0.00,VWS V14.01,2013-05-27 17:57:00,
2013-05-27 08:02:00,71.1,65.0,30.08,NNE,16,9.0,9.0,81,0.00,,,0.00,VWS V14.01,2013-05-27 18:02:00,
2013-05-27 08:07:00,71.5,64.7,30.08,NNE,15,16.0,17.0,79,0.00,,,0.00,VWS V14.01,2013-05-27 18:07:00,
2013-05-27 08:12:00,71.8,65.3,30.08,NNW,343,10.0,10.0,80,0.00,,,0.00,VWS V14.01,2013-05-27 18:12:00,
2013-05-27 08:17:00,71.7,65.6,30.08,ENE,78,7.0,13.0,81,0.00,,,0.00,VWS V14.01,2013-05-27 18:17:00,
2013-05-27 08:22:00,71.6,65.8,30.08,NE,54,5.0,6.0,82,0.00,,,0.00,VWS V14.01,2013-05-27 18:22:00,
2013-05-27 08:27:00,71.5,65.7,30.07,NNE,19,11.0,12.0,82,0.00,,,0.00,VWS V14.01,2013-05-27 18:27:00,
2013-05-27 08:32:00,71.7,65.2,30.07,NW,321,13.0,18.0,80,0.00,,,0.00,VWS V14.01,2013-05-27 18:32:00,
2013-05-27 08:37:00,72.3,65.8,30.08,NNW,348,14.0,14.0,80,0.00,,,0.00,VWS V14.01,2013-05-27 18:37:00,
2013-05-27 08:42:00,72.3,65.8,30.08,NE,40,10.0,11.0,80,0.00,,,0.00,VWS V14.01,2013-05-27 18:42:00,
2013-05-27 08:48:00,72.5,65.3,30.08,NNE,26,13.0,14.0,78,0.00,,,0.00,VWS V14.01,2013-05-27 18:48:00,
2013-05-27 08:53:00,72.8,65.6,30.08,NE,47,7.0,12.0,78,0.00,,,0.00,VWS V14.01,2013-05-27 18:53:00,
2013-05-27 08:58:00,72.9,65.7,30.07,NNW,343,7.0,9.0,78,0.00,,,0.00,VWS V14.01,2013-05-27 18:58:00,
2013-05-27 09:03:00,72.9,65.7,30.07,NNE,33,13.0,17.0,78,0.00,,,0.00,VWS V14.01,2013-05-27 19:03:00,
2013-05-27 09:08:00,72.7,66.5,30.08,NNE,18,8.0,11.0,81,0.00,,,0.00,VWS V14.01,2013-05-27 19:08:00,
2013-05-27 09:13:00,72.6,66.4,30.08,North,356,10.0,13.0,81,0.00,,,0.00,VWS V14.01,2013-05-27 19:13:00,
2013-05-27 09:18:00,72.5,67.1,30.08,ENE,66,7.0,12.0,83,0.00,,,0.00,VWS V14.01,2013-05-27 19:18:00,
2013-05-27 09:23:00,72.5,67.1,30.08,NE,52,9.0,9.0,83,0.00,,,0.00,VWS V14.01,2013-05-27 19:23:00,
2013-05-27 09:28:00,72.2,66.8,30.08,North,6,11.0,11.0,83,0.00,,,0.00,VWS V14.01,2013-05-27 19:28:00,
2013-05-27 09:33:00,72.3,66.2,30.08,NNW,338,12.0,12.0,81,0.00,,,0.00,VWS V14.01,2013-05-27 19:33:00,
2013-05-27 09:38:00,72.9,66.0,30.07,NNE,14,10.0,15.0,79,0.00,,,0.00,VWS V14.01,2013-05-27 19:38:00,
2013-05-27 09:43:00,73.3,65.3,30.07,NNW,343,10.0,12.0,76,0.00,,,0.00,VWS V14.01,2013-05-27 19:43:00,
2013-05-27 09:48:00,73.5,65.1,30.07,NE,47,10.0,12.0,75,0.00,,,0.00,VWS V14.01,2013-05-27 19:48:00,
2013-05-27 09:53:00,73.5,65.5,30.07,NNE,25,7.0,8.0,76,0.00,,,0.00,VWS V14.01,2013-05-27 19:53:00,
2013-05-27 09:59:00,73.5,65.1,30.07,NW,324,13.0,13.0,75,0.00,,,0.00,VWS V14.01,2013-05-27 19:59:00,
2013-05-27 10:04:00,73.8,65.8,30.07,NE,42,7.0,10.0,76,0.00,,,0.00,VWS V14.01,2013-05-27 20:04:00,
2013-05-27 10:09:00,73.3,66.0,30.07,NE,53,8.0,14.0,78,0.00,,,0.00,VWS V14.01,2013-05-27 20:09:00,
2013-05-27 10:14:00,73.3,66.4,30.07,NNE,31,5.0,7.0,79,0.00,,,0.00,VWS V14.01,2013-05-27 20:14:00,
2013-05-27 10:19:00,73.1,66.6,30.07,ENE,62,8.0,9.0,80,0.00,,,0.00,VWS V14.01,2013-05-27 20:19:00,
2013-05-27 10:24:00,73.0,65.7,30.07,NNE,23,10.0,12.0,78,0.00,,,0.00,VWS V14.01,2013-05-27 20:24:00,
2013-05-27 10:29:00,73.4,65.0,30.07,NNE,20,15.0,20.0,75,0.00,,,0.00,VWS V14.01,2013-05-27 20:29:00,
2013-05-27 10:34:00,73.7,64.5,30.07,NNE,14,10.0,15.0,73,0.00,,,0.00,VWS V14.01,2013-05-27 20:34:00,
2013-05-27 10:39:00,73.7,64.1,30.07,North,350,9.0,9.0,72,0.00,,,0.00,VWS V14.01,2013-05-27 20:39:00,
2013-05-27 10:44:00,74.5,64.5,30.07,North,350,4.0,6.0,71,0.00,,,0.00,VWS V14.01,2013-05-27 20:44:00,
2013-05-27 10:49:00,75.3,65.7,30.07,ENE,65,5.0,5.0,72,0.00,,,0.00,VWS V14.01,2013-05-27 20:49:00,
2013-05-27 10:54:00,75.6,65.5,30.07,ENE,67,11.0,12.0,71,0.00,,,0.00,VWS V14.01,2013-05-27 20:54:00,
2013-05-27 10:59:00,75.0,66.2,30.07,NE,34,8.0,8.0,74,0.00,,,0.00,VWS V14.01,2013-05-27 20:59:00,
2013-05-27 11:04:00,74.8,66.3,30.07,East,87,13.0,13.0,75,0.00,,,0.00,VWS V14.01,2013-05-27 21:04:00,
2013-05-27 11:09:00,74.5,66.1,30.07,NNE,22,12.0,16.0,75,0.00,,,0.00,VWS V14.01,2013-05-27 21:09:00,
2013-05-27 11:14:00,74.6,66.9,30.07,NE,41,14.0,14.0,77,0.00,,,0.00,VWS V14.01,2013-05-27 21:14:00,
2013-05-27 11:19:00,74.3,67.0,30.07,ENE,68,16.0,16.0,78,0.00,,,0.00,VWS V14.01,2013-05-27 21:19:00,
2013-05-27 11:25:00,73.9,67.3,30.07,ENE,62,10.0,11.0,80,0.00,,,0.00,VWS V14.01,2013-05-27 21:25:00,
2013-05-27 11:30:00,73.7,67.5,30.07,WNW,296,8.0,17.0,81,0.00,,,0.00,VWS V14.01,2013-05-27 21:30:00,
2013-05-27 11:35:00,73.9,67.7,30.07,NE,36,16.0,21.0,81,0.00,,,0.00,VWS V14.01,2013-05-27 21:35:00,
2013-05-27 11:40:00,73.8,67.6,30.08,NE,41,8.0,9.0,81,0.00,,,0.00,VWS V14.01,2013-05-27 21:40:00,
2013-05-27 11:45:00,73.9,67.3,30.08,NNE,20,16.0,16.0,80,0.00,,,0.00,VWS V14.01,2013-05-27 21:45:00,
2013-05-27 11:50:00,74.1,66.8,30.07,NNE,20,9.0,12.0,78,0.00,,,0.00,VWS V14.01,2013-05-27 21:50:00,
2013-05-27 11:55:00,74.7,67.8,30.08,NE,52,7.0,11.0,79,0.00,,,0.00,VWS V14.01,2013-05-27 21:55:00,
2013-05-27 12:00:00,74.6,67.7,30.07,NE,39,12.0,12.0,79,0.00,,,0.00,VWS V14.01,2013-05-27 22:00:00,
2013-05-27 12:05:00,74.7,68.1,30.07,NNE,31,10.0,13.0,80,0.00,,,0.00,VWS V14.01,2013-05-27 22:05:00,
2013-05-27 12:10:00,75.5,68.5,30.07,ESE,108,12.0,12.0,79,0.00,,,0.00,VWS V14.01,2013-05-27 22:10:00,
2013-05-27 12:15:00,75.7,66.8,30.07,ESE,113,17.0,17.0,74,0.00,,,0.00,VWS V14.01,2013-05-27 22:15:00,
2013-05-27 12:20:00,75.0,65.8,30.07,ENE,67,10.0,11.0,73,0.00,,,0.00,VWS V14.01,2013-05-27 22:20:00,
2013-05-27 12:25:00,74.6,65.8,30.07,ENE,59,10.0,10.0,74,0.00,,,0.00,VWS V14.01,2013-05-27 22:25:00,
2013-05-27 12:30:00,74.5,66.1,30.07,East,79,7.0,9.0,75,0.00,,,0.00,VWS V14.01,2013-05-27 22:30:00,
2013-05-27 12:35:00,74.5,67.2,30.07,NE,51,11.0,11.0,78,0.00,,,0.00,VWS V14.01,2013-05-27 22:35:00,
2013-05-27 12:40:00,73.9,65.5,30.07,NE,45,12.0,12.0,75,0.00,,,0.00,VWS V14.01,2013-05-27 22:40:00,
2013-05-27 12:46:00,73.8,66.2,30.07,NNE,17,8.0,11.0,77,0.00,,,0.00,VWS V14.01,2013-05-27 22:46:00,
2013-05-27 12:51:00,73.9,66.6,30.07,NNE,33,9.0,15.0,78,0.00,,,0.00,VWS V14.01,2013-05-27 22:51:00,
2013-05-27 12:56:00,73.6,66.3,30.07,NNE,28,10.0,10.0,78,0.00,,,0.00,VWS V14.01,2013-05-27 22:56:00,
2013-05-27 13:01:00,72.9,66.7,30.07,NE,55,10.0,21.0,81,0.00,,,0.00,VWS V14.01,2013-05-27 23:01:00,
2013-05-27 13:06:00,71.8,67.1,30.07,ENE,57,11.0,12.0,85,0.00,,,0.00,VWS V14.01,2013-05-27 23:06:00,
2013-05-27 13:11:00,71.2,67.1,30.07,NE,42,4.0,7.0,87,0.00,,,0.00,VWS V14.01,2013-05-27 23:11:00,
2013-05-27 13:16:00,71.0,66.6,30.07,NNE,26,9.0,13.0,86,0.00,,,0.00,VWS V14.01,2013-05-27 23:16:00,
2013-05-27 13:21:00,71.0,66.3,30.07,NNE,18,11.0,14.0,85,0.00,,,0.00,VWS V14.01,2013-05-27 23:21:00,
2013-05-27 13:26:00,71.0,65.6,30.07,NE,41,10.0,10.0,83,0.00,,,0.00,VWS V14.01,2013-05-27 23:26:00,
2013-05-27 13:31:00,71.0,65.9,30.07,NNE,22,12.0,13.0,84,0.00,,,0.00,VWS V14.01,2013-05-27 23:31:00,
2013-05-27 13:36:00,71.0,65.9,30.07,North,11,8.0,9.0,84,0.00,,,0.00,VWS V14.01,2013-05-27 23:36:00,
2013-05-27 13:41:00,70.8,66.1,30.07,NE,34,9.0,9.0,85,0.00,,,0.00,VWS V14.01,2013-05-27 23:41:00,
2013-05-27 13:46:00,70.9,66.2,30.07,NE,54,5.0,6.0,85,0.00,,,0.00,VWS V14.01,2013-05-27 23:46:00,
2013-05-27 13:52:00,70.9,65.8,30.07,NE,46,6.0,7.0,84,0.00,,,0.00,VWS V14.01,2013-05-27 23:52:00,
2013-05-27 13:57:00,71.2,65.4,30.06,North,350,10.0,11.0,82,0.00,,,0.00,VWS V14.01,2013-05-27 23:57:00,
2013-05-27 14:02:00,71.6,65.1,30.06,NNE,14,12.0,12.0,80,0.00,,,0.00,VWS V14.01,2013-05-28 00:02:00,
2013-05-27 14:07:00,72.0,64.0,30.06,NE,35,6.0,8.0,76,0.00,,,0.00,VWS V14.01,2013-05-28 00:07:00,
2013-05-27 14:12:00,72.6,64.2,30.06,NNE,28,8.0,12.0,75,0.00,,,0.00,VWS V14.01,2013-05-28 00:12:00,
2013-05-27 14:17:00,73.5,63.5,30.05,NNW,334,14.0,17.0,71,0.00,,,0.00,VWS V14.01,2013-05-28 00:17:00,
2013-05-27 14:22:00,73.7,64.1,30.05,NNW,345,15.0,25.0,72,0.00,,,0.00,VWS V14.01,2013-05-28 00:22:00,
2013-05-27 14:27:00,73.5,64.7,30.05,North,349,20.0,20.0,74,0.00,,,0.00,VWS V14.01,2013-05-28 00:27:00,
2013-05-27 14:32:00,73.3,64.9,30.05,North,9,11.0,11.0,75,0.00,,,0.00,VWS V14.01,2013-05-28 00:32:00,
2013-05-27 14:37:00,73.3,65.3,30.05,East,82,12.0,13.0,76,0.00,,,0.00,VWS V14.01,2013-05-28 00:37:00,
2013-05-27 14:42:00,73.4,66.5,30.04,NNE,21,10.0,10.0,79,0.00,,,0.00,VWS V14.01,2013-05-28 00:42:00,
2013-05-27 14:47:00,73.3,66.8,30.04,NE,47,8.0,9.0,80,0.00,,,0.00,VWS V14.01,2013-05-28 00:47:00,
2013-05-27 14:52:00,73.1,66.6,30.05,NE,40,10.0,13.0,80,0.00,,,0.00,VWS V14.01,2013-05-28 00:52:00,
2013-05-27 14:57:00,72.7,66.2,30.04,North,355,14.0,18.0,80,0.00,,,0.00,VWS V14.01,2013-05-28 00:57:00,
2013-05-27 15:02:00,72.5,66.3,30.04,WNW,301,4.0,8.0,81,0.00,,,0.00,VWS V14.01,2013-05-28 01:02:00,
2013-05-27 15:07:00,72.3,66.5,30.04,NE,56,2.0,10.0,82,0.00,,,0.00,VWS V14.01,2013-05-28 01:07:00,
2013-05-27 15:13:00,72.2,67.1,30.04,NE,51,6.0,8.0,84,0.00,,,0.00,VWS V14.01,2013-05-28 01:13:00,
2013-05-27 15:18:00,72.1,67.0,30.04,NNE,14,10.0,10.0,84,0.00,,,0.00,VWS V14.01,2013-05-28 01:18:00,
2013-05-27 15:23:00,72.3,67.5,30.04,NE,48,6.0,8.0,85,0.00,,,0.00,VWS V14.01,2013-05-28 01:23:00,
2013-05-27 15:28:00,72.4,67.3,30.04,NE,50,14.0,14.0,84,0.00,,,0.00,VWS V14.01,2013-05-28 01:28:00,
2013-05-27 15:33:00,72.4,67.3,30.04,NNE,32,5.0,7.0,84,0.00,,,0.00,VWS V14.01,2013-05-28 01:33:00,
2013-05-27 15:38:00,72.5,67.7,30.03,ENE,76,7.0,9.0,85,0.00,,,0.00,VWS V14.01,2013-05-28 01:38:00,
2013-05-27 15:43:00,72.6,67.5,30.03,ENE,60,5.0,5.0,84,0.00,,,0.00,VWS V14.01,2013-05-28 01:43:00,
2013-05-27 15:48:00,72.7,67.6,30.03,NNE,18,6.0,8.0,84,0.00,,,0.00,VWS V14.01,2013-05-28 01:48:00,
2013-05-27 15:53:00,72.9,67.4,30.02,North,353,8.0,10.0,83,0.00,,,0.00,VWS V14.01,2013-05-28 01:53:00,
2013-05-27 15:58:00,73.1,67.6,30.03,NE,43,5.0,5.0,83,0.00,,,0.00,VWS V14.01,2013-05-28 01:58:00,
2013-05-27 16:03:00,73.0,67.2,30.03,NNE,31,17.0,17.0,82,0.00,,,0.00,VWS V14.01,2013-05-28 02:03:00,
2013-05-27 16:08:00,73.0,67.2,30.02,NNE,27,10.0,15.0,82,0.00,,,0.00,VWS V14.01,2013-05-28 02:08:00,
2013-05-27 16:13:00,73.1,67.6,30.03,NE,53,11.0,11.0,83,0.00,,,0.00,VWS V14.01,2013-05-28 02:13:00,
2013-05-27 16:18:00,73.3,67.8,30.02,NNE,17,9.0,9.0,83,0.00,,,0.00,VWS V14.01,2013-05-28 02:18:00,
2013-05-27 16:23:00,73.3,67.8,30.02,NNE,18,12.0,12.0,83,0.00,,,0.00,VWS V14.01,2013-05-28 02:23:00,
2013-05-27 16:29:00,73.0,67.9,30.02,ENE,59,5.0,7.0,84,0.00,,,0.00,VWS V14.01,2013-05-28 02:29:00,
2013-05-27 16:34:00,72.9,67.8,30.02,NE,47,5.0,7.0,84,0.00,,,0.00,VWS V14.01,2013-05-28 02:34:00,
2013-05-27 16:39:00,72.9,68.1,30.02,NNE,31,11.0,11.0,85,0.00,,,0.00,VWS V14.01,2013-05-28 02:39:00,
2013-05-27 16:44:00,73.3,68.2,30.02,East,94,9.0,9.0,84,0.00,,,0.00,VWS V14.01,2013-05-28 02:44:00,
2013-05-27 16:49:00,73.5,68.0,30.02,East,85,9.0,9.0,83,0.00,,,0.00,VWS V14.01,2013-05-28 02:49:00,
2013-05-27 16:54:00,73.4,67.9,30.02,ENE,68,13.0,16.0,83,0.00,,,0.00,VWS V14.01,2013-05-28 02:54:00,
2013-05-27 16:59:00,73.3,67.8,30.02,East,95,8.0,8.0,83,0.00,,,0.00,VWS V14.01,2013-05-28 02:59:00,
2013-05-27 17:04:00,73.2,67.7,30.02,ENE,71,12.0,12.0,83,0.00,,,0.00,VWS V14.01,2013-05-28 03:04:00,
2013-05-27 17:09:00,73.1,67.6,30.02,NE,52,7.0,11.0,83,0.00,,,0.00,VWS V14.01,2013-05-28 03:09:00,
2013-05-27 17:14:00,73.1,67.6,30.02,East,99,7.0,7.0,83,0.00,,,0.00,VWS V14.01,2013-05-28 03:14:00,
2013-05-27 17:19:00,72.6,66.8,30.03,ENE,64,4.0,12.0,82,0.00,,,0.00,VWS V14.01,2013-05-28 03:19:00,
2013-05-27 17:24:00,72.1,66.7,30.03,NE,42,12.0,12.0,83,0.00,,,0.00,VWS V14.01,2013-05-28 03:24:00,
2013-05-27 17:29:00,72.0,66.9,30.02,NNE,24,7.0,7.0,84,0.00,,,0.00,VWS V14.01,2013-05-28 03:29:00,
2013-05-27 17:34:00,72.0,67.2,30.03,NE,51,11.0,11.0,85,0.00,,,0.00,VWS V14.01,2013-05-28 03:34:00,
2013-05-27 17:39:00,72.0,66.9,30.03,NNE,15,7.0,7.0,84,0.00,,,0.00,VWS V14.01,2013-05-28 03:39:00,
2013-05-27 17:44:00,72.2,67.1,30.03,NNE,20,10.0,10.0,84,0.00,,,0.00,VWS V14.01,2013-05-28 03:44:00,
2013-05-27 17:49:00,72.3,67.2,30.03,North,11,5.0,5.0,84,0.00,,,0.00,VWS V14.01,2013-05-28 03:49:00,
2013-05-27 17:54:00,72.4,67.3,30.03,NNE,22,10.0,10.0,84,0.00,,,0.00,VWS V14.01,2013-05-28 03:54:00,
2013-05-27 17:59:00,72.5,67.4,30.03,NNE,30,10.0,12.0,84,0.00,,,0.00,VWS V14.01,2013-05-28 03:59:00,
2013-05-27 18:01:00,72.5,67.4,30.03,NNE,19,7.0,10.0,84,0.00,,,0.00,VWS V14.01,2013-05-28 04:01:00,
2013-05-27 18:02:00,72.5,67.4,30.03,NNE,20,9.0,10.0,84,0.00,,,0.00,VWS V14.01,2013-05-28 04:02:00,
2013-05-27 18:07:00,72.6,67.5,30.03,NE,34,5.0,8.0,84,0.00,,,0.00,VWS V14.01,2013-05-28 04:07:00,
2013-05-27 18:12:00,72.6,67.2,30.03,NNE,19,7.0,7.0,83,0.00,,,0.00,VWS V14.01,2013-05-28 04:12:00,
2013-05-27 18:17:00,72.6,67.2,30.03,NE,43,4.0,6.0,83,0.00,,,0.00,VWS V14.01,2013-05-28 04:17:00,
2013-05-27 18:22:00,72.6,67.5,30.03,NE,35,7.0,11.0,84,0.00,,,0.00,VWS V14.01,2013-05-28 04:22:00,
2013-05-27 18:29:00,72.6,67.5,30.03,NNE,19,8.0,8.0,84,0.00,,,0.00,VWS V14.01,2013-05-28 04:29:00,
2013-05-27 18:34:00,72.5,67.4,30.03,NNE,23,5.0,7.0,84,0.00,,,0.00,VWS V14.01,2013-05-28 04:34:00,
2013-05-27 18:39:00,72.5,67.4,30.03,NE,34,14.0,14.0,84,0.00,,,0.00,VWS V14.01,2013-05-28 04:39:00,
2013-05-27 18:44:00,72.4,66.6,30.03,NNE,25,3.0,9.0,82,0.00,,,0.00,VWS V14.01,2013-05-28 04:44:00,
2013-05-27 18:49:00,72.5,66.7,30.04,NNE,25,14.0,14.0,82,0.00,,,0.00,VWS V14.01,2013-05-28 04:49:00,
2013-05-27 18:54:00,72.5,66.7,30.04,NNE,26,16.0,16.0,82,0.00,,,0.00,VWS V14.01,2013-05-28 04:54:00,
2013-05-27 18:59:00,72.4,66.6,30.04,North,360,5.0,12.0,82,0.00,,,0.00,VWS V14.01,2013-05-28 04:59:00,
2013-05-27 19:04:00,72.4,66.6,30.04,NNW,342,8.0,12.0,82,0.00,,,0.00,VWS V14.01,2013-05-28 05:04:00,
2013-05-27 19:09:00,72.4,66.2,30.04,NE,47,12.0,14.0,81,0.00,,,0.00,VWS V14.01,2013-05-28 05:09:00,
2013-05-27 19:14:00,72.4,66.2,30.05,NNW,339,11.0,16.0,81,0.00,,,0.00,VWS V14.01,2013-05-28 05:14:00,
2013-05-27 19:20:00,72.4,66.6,30.05,NNE,33,16.0,16.0,82,0.00,,,0.00,VWS V14.01,2013-05-28 05:20:00,
2013-05-27 19:25:00,72.3,66.5,30.05,NE,54,4.0,5.0,82,0.00,,,0.00,VWS V14.01,2013-05-28 05:25:00,
2013-05-27 19:30:00,72.3,66.8,30.05,NE,46,9.0,11.0,83,0.00,,,0.00,VWS V14.01,2013-05-28 05:30:00,
2013-05-27 19:35:00,72.2,67.1,30.05,North,11,13.0,13.0,84,0.00,,,0.00,VWS V14.01,2013-05-28 05:35:00,
2013-05-27 19:40:00,72.2,66.8,30.05,NE,47,12.0,15.0,83,0.00,,,0.00,VWS V14.01,2013-05-28 05:40:00,
2013-05-27 19:45:00,72.1,66.7,30.05,NNE,31,9.0,12.0,83,0.00,,,0.00,VWS V14.01,2013-05-28 05:45:00,
2013-05-27 19:50:00,72.0,66.6,30.06,NNE,28,14.0,16.0,83,0.00,,,0.00,VWS V14.01,2013-05-28 05:50:00,
2013-05-27 19:55:00,71.9,66.8,30.06,NNE,33,10.0,10.0,84,0.00,,,0.00,VWS V14.01,2013-05-28 05:55:00,
2013-05-27 20:00:00,71.8,66.7,30.06,NNE,30,3.0,5.0,84,0.00,,,0.00,VWS V14.01,2013-05-28 06:00:00,
2013-05-27 20:05:00,71.8,66.7,30.06,NNE,25,3.0,4.0,84,0.00,,,0.00,VWS V14.01,2013-05-28 06:05:00,
2013-05-27 20:10:00,71.8,66.4,30.06,ENE,60,4.0,7.0,83,0.00,,,0.00,VWS V14.01,2013-05-28 06:10:00,
2013-05-27 20:15:00,71.8,66.4,30.06,ENE,61,8.0,8.0,83,0.00,,,0.00,VWS V14.01,2013-05-28 06:15:00,
2013-05-27 20:20:00,71.9,66.1,30.06,NNE,13,2.0,4.0,82,0.00,,,0.00,VWS V14.01,2013-05-28 06:20:00,
2013-05-27 20:25:00,71.9,66.1,30.07,North,3,5.0,6.0,82,0.00,,,0.00,VWS V14.01,2013-05-28 06:25:00,
2013-05-27 20:30:00,71.9,66.1,30.07,NNE,23,5.0,6.0,82,0.00,,,0.00,VWS V14.01,2013-05-28 06:30:00,
2013-05-27 20:35:00,71.9,66.1,30.07,NNE,26,5.0,8.0,82,0.00,,,0.00,VWS V14.01,2013-05-28 06:35:00,
2013-05-27 20:41:00,71.9,66.5,30.07,ENE,76,4.0,6.0,83,0.00,,,0.00,VWS V14.01,2013-05-28 06:41:00,
2013-05-27 20:46:00,71.6,66.5,30.07,NNE,13,5.0,10.0,84,0.00,,,0.00,VWS V14.01,2013-05-28 06:46:00,
2013-05-27 20:51:00,71.4,66.7,30.07,ENE,59,7.0,7.0,85,0.00,,,0.00,VWS V14.01,2013-05-28 06:51:00,
2013-05-27 20:56:00,71.3,66.9,30.08,NE,50,4.0,4.0,86,0.00,,,0.00,VWS V14.01,2013-05-28 06:56:00,
2013-05-27 21:01:00,71.1,66.7,30.08,NE,47,9.0,9.0,86,0.00,,,0.00,VWS V14.01,2013-05-28 07:01:00,
2013-05-27 21:06:00,71.1,66.7,30.08,ENE,76,6.0,7.0,86,0.00,,,0.00,VWS V14.01,2013-05-28 07:06:00,
2013-05-27 21:11:00,71.2,66.5,30.07,North,5,11.0,11.0,85,0.00,,,0.00,VWS V14.01,2013-05-28 07:11:00,
2013-05-27 21:16:00,71.3,66.2,30.08,NNE,23,8.0,8.0,84,0.00,,,0.00,VWS V14.01,2013-05-28 07:16:00,
2013-05-27 21:21:00,71.5,66.1,30.08,NNW,348,8.0,8.0,83,0.00,,,0.00,VWS V14.01,2013-05-28 07:21:00,
2013-05-27 21:27:00,71.7,65.9,30.08,North,10,6.0,6.0,82,0.00,,,0.00,VWS V14.01,2013-05-28 07:27:00,
2013-05-27 21:32:00,71.8,66.4,30.08,ENE,59,3.0,5.0,83,0.00,,,0.00,VWS V14.01,2013-05-28 07:32:00,
2013-05-27 21:37:00,71.8,66.4,30.08,East,81,3.0,3.0,83,0.00,,,0.00,VWS V14.01,2013-05-28 07:37:00,
2013-05-27 21:42:00,71.7,66.3,30.09,NNE,24,10.0,10.0,83,0.00,,,0.00,VWS V14.01,2013-05-28 07:42:00,
2013-05-27 21:47:00,71.8,66.4,30.08,NNE,20,5.0,11.0,83,0.00,,,0.00,VWS V14.01,2013-05-28 07:47:00,
2013-05-27 21:52:00,71.8,66.4,30.09,NNE,24,13.0,16.0,83,0.00,,,0.00,VWS V14.01,2013-05-28 07:52:00,
2013-05-27 21:57:00,71.7,66.3,30.09,NNE,13,7.0,8.0,83,0.00,,,0.00,VWS V14.01,2013-05-28 07:57:00,
2013-05-27 22:02:00,71.7,66.6,30.08,ENE,71,2.0,4.0,84,0.00,,,0.00,VWS V14.01,2013-05-28 08:02:00,
2013-05-27 22:08:00,71.6,66.5,30.09,NNE,16,5.0,7.0,84,0.00,,,0.00,VWS V14.01,2013-05-28 08:08:00,
2013-05-27 22:13:00,71.6,66.5,30.09,NNE,21,4.0,5.0,84,0.00,,,0.00,VWS V14.01,2013-05-28 08:13:00,
2013-05-27 22:18:00,71.6,66.2,30.09,NE,34,10.0,10.0,83,0.00,,,0.00,VWS V14.01,2013-05-28 08:18:00,
2013-05-27 22:23:00,71.8,66.0,30.09,NE,34,8.0,10.0,82,0.00,,,0.00,VWS V14.01,2013-05-28 08:23:00,
2013-05-27 22:28:00,71.9,65.8,30.09,ENE,61,1.0,1.0,81,0.00,,,0.00,VWS V14.01,2013-05-28 08:28:00,
2013-05-27 22:33:00,71.9,65.4,30.09,NE,47,3.0,4.0,80,0.00,,,0.00,VWS V14.01,2013-05-28 08:33:00,
2013-05-27 22:38:00,72.1,65.2,30.09,NE,37,6.0,9.0,79,0.00,,,0.00,VWS V14.01,2013-05-28 08:38:00,
2013-05-27 22:43:00,72.2,65.0,30.09,NNE,30,10.0,12.0,78,0.00,,,0.00,VWS V14.01,2013-05-28 08:43:00,
2013-05-27 22:48:00,72.2,65.3,30.09,NNE,22,5.0,6.0,79,0.00,,,0.00,VWS V14.01,2013-05-28 08:48:00,
2013-05-27 22:53:00,72.1,65.6,30.09,NNE,25,8.0,8.0,80,0.00,,,0.00,VWS V14.01,2013-05-28 08:53:00,
2013-05-27 22:58:00,72.0,65.9,30.08,NE,37,9.0,12.0,81,0.00,,,0.00,VWS V14.01,2013-05-28 08:58:00,
2013-05-27 23:03:00,71.9,66.1,30.08,NNE,18,7.0,7.0,82,0.00,,,0.00,VWS V14.01,2013-05-28 09:03:00,
2013-05-27 23:09:00,71.8,66.0,30.08,NE,54,9.0,9.0,82,0.00,,,0.00,VWS V14.01,2013-05-28 09:09:00,
2013-05-27 23:14:00,71.8,66.0,30.08,ENE,66,8.0,8.0,82,0.00,,,0.00,VWS V14.01,2013-05-28 09:14:00,
2013-05-27 23:19:00,71.8,65.7,30.08,ENE,71,6.0,6.0,81,0.00,,,0.00,VWS V14.01,2013-05-28 09:19:00,
2013-05-27 23:24:00,71.9,65.8,30.08,North,360,1.0,1.0,81,0.00,,,0.00,VWS V14.01,2013-05-28 09:24:00,
2013-05-27 23:29:00,72.0,65.5,30.08,East,96,6.0,6.0,80,0.00,,,0.00,VWS V14.01,2013-05-28 09:29:00,
2013-05-27 23:34:00,72.2,65.3,30.08,East,99,14.0,14.0,79,0.00,,,0.00,VWS V14.01,2013-05-28 09:34:00,
2013-05-27 23:39:00,72.1,65.2,30.08,NE,39,3.0,4.0,79,0.00,,,0.00,VWS V14.01,2013-05-28 09:39:00,
2013-05-27 23:44:00,72.3,65.1,30.08,ENE,65,12.0,12.0,78,0.00,,,0.00,VWS V14.01,2013-05-28 09:44:00,
2013-05-27 23:50:00,72.2,65.0,30.07,NE,46,8.0,12.0,78,0.00,,,0.00,VWS V14.01,2013-05-28 09:50:00,
2013-05-27 23:55:00,72.2,65.0,30.07,NNE,28,9.0,11.0,78,0.00,,,0.00,VWS V14.01,2013-05-28 09:55:00,